sensor_id;sensor_type;location;lat;lon;timestamp;pressure;altitude;pressure_sealevel;temperature;humidity
6198;BME280;3132;42.622;23.328;2023-02-15T00:00:18;93895.91;;;0.99;88.95
6198;BME280;3132;42.622;23.328;2023-02-15T00:02:44;93912.59;;;1.16;88.41
6198;BME280;3132;42.622;23.328;2023-02-15T00:05:09;93859.28;;;0.63;88.55
6198;BME280;3132;42.622;23.328;2023-02-15T00:07:35;93924.75;;;1.01;89.05
6198;BME280;3132;42.622;23.328;2023-02-15T00:10:00;93921.00;;;0.97;88.75
6198;BME280;3132;42.622;23.328;2023-02-15T00:12:25;93916.84;;;0.96;89.46
6198;BME280;3132;42.622;23.328;2023-02-15T00:14:51;93908.47;;;0.88;88.87
6198;BME280;3132;42.622;23.328;2023-02-15T00:17:16;93912.53;;;1.03;88.98
6198;BME280;3132;42.622;23.328;2023-02-15T00:19:42;93912.06;;;0.93;89.72
6198;BME280;3132;42.622;23.328;2023-02-15T00:22:07;93936.66;;;1.02;89.20
6198;BME280;3132;42.622;23.328;2023-02-15T00:24:33;93923.56;;;0.97;89.72
6198;BME280;3132;42.622;23.328;2023-02-15T00:26:58;93934.22;;;0.94;89.51
6198;BME280;3132;42.622;23.328;2023-02-15T00:29:24;93917.94;;;0.81;89.97
6198;BME280;3132;42.622;23.328;2023-02-15T00:31:49;93931.50;;;1.02;89.69
6198;BME280;3132;42.622;23.328;2023-02-15T00:34:18;93932.72;;;1.06;88.90
6198;BME280;3132;42.622;23.328;2023-02-15T00:36:44;93911.69;;;0.96;89.15
6198;BME280;3132;42.622;23.328;2023-02-15T00:39:11;93929.94;;;1.08;89.61
6198;BME280;3132;42.622;23.328;2023-02-15T00:41:37;93936.13;;;1.13;90.41
6198;BME280;3132;42.622;23.328;2023-02-15T00:44:03;93938.22;;;1.03;89.17
6198;BME280;3132;42.622;23.328;2023-02-15T00:46:29;93944.00;;;1.05;89.40
6198;BME280;3132;42.622;23.328;2023-02-15T00:48:54;93899.88;;;0.74;88.91
6198;BME280;3132;42.622;23.328;2023-02-15T00:51:19;93934.66;;;1.04;88.98
6198;BME280;3132;42.622;23.328;2023-02-15T00:53:48;93931.69;;;1.01;89.57
6198;BME280;3132;42.622;23.328;2023-02-15T00:56:13;93932.72;;;1.06;90.34
6198;BME280;3132;42.622;23.328;2023-02-15T00:58:39;93930.72;;;1.02;89.70
6198;BME280;3132;42.622;23.328;2023-02-15T01:01:10;93931.88;;;0.99;89.90
6198;BME280;3132;42.622;23.328;2023-02-15T01:03:36;93934.66;;;1.04;89.85
6198;BME280;3132;42.622;23.328;2023-02-15T01:06:03;93932.47;;;0.95;90.29
6198;BME280;3132;42.622;23.328;2023-02-15T01:08:29;93927.91;;;0.97;90.33
6198;BME280;3132;42.622;23.328;2023-02-15T01:10:54;93898.56;;;0.85;90.48
6198;BME280;3132;42.622;23.328;2023-02-15T01:13:20;93931.84;;;0.93;89.94
6198;BME280;3132;42.622;23.328;2023-02-15T01:15:45;93890.13;;;0.63;90.14
6198;BME280;3132;42.622;23.328;2023-02-15T01:18:11;93918.78;;;0.94;90.04
6198;BME280;3132;42.622;23.328;2023-02-15T01:20:38;93918.13;;;1.13;90.86
6198;BME280;3132;42.622;23.328;2023-02-15T01:23:06;93926.75;;;0.99;89.88
6198;BME280;3132;42.622;23.328;2023-02-15T01:25:33;93902.91;;;0.84;91.03
6198;BME280;3132;42.622;23.328;2023-02-15T01:28:00;93912.53;;;1.03;90.48
6198;BME280;3132;42.622;23.328;2023-02-15T01:30:25;93918.66;;;1.02;90.92
6198;BME280;3132;42.622;23.328;2023-02-15T01:32:51;93908.31;;;0.96;90.65
6198;BME280;3132;42.622;23.328;2023-02-15T01:35:16;93904.38;;;0.93;90.80
6198;BME280;3132;42.622;23.328;2023-02-15T01:37:42;93903.41;;;1.01;91.86
6198;BME280;3132;42.622;23.328;2023-02-15T01:40:12;93881.69;;;0.76;91.31
6198;BME280;3132;42.622;23.328;2023-02-15T01:42:38;93882.72;;;0.81;91.12
6198;BME280;3132;42.622;23.328;2023-02-15T01:47:36;93893.09;;;0.94;91.51
6198;BME280;3132;42.622;23.328;2023-02-15T01:50:11;93903.50;;;0.86;91.16
6198;BME280;3132;42.622;23.328;2023-02-15T01:52:40;93887.91;;;0.88;91.74
6198;BME280;3132;42.622;23.328;2023-02-15T01:55:10;93905.31;;;0.92;91.95
6198;BME280;3132;42.622;23.328;2023-02-15T01:57:35;93874.47;;;0.92;93.47
6198;BME280;3132;42.622;23.328;2023-02-15T02:00:03;93890.81;;;0.78;92.07
6198;BME280;3132;42.622;23.328;2023-02-15T02:02:29;93889.09;;;0.85;92.08
6198;BME280;3132;42.622;23.328;2023-02-15T02:04:58;93891.84;;;0.90;91.89
6198;BME280;3132;42.622;23.328;2023-02-15T02:07:27;93891.41;;;0.80;92.37
6198;BME280;3132;42.622;23.328;2023-02-15T02:09:54;93879.56;;;0.86;92.21
6198;BME280;3132;42.622;23.328;2023-02-15T02:12:21;93854.41;;;0.75;92.27
6198;BME280;3132;42.622;23.328;2023-02-15T02:14:48;93854.06;;;0.78;94.44
6198;BME280;3132;42.622;23.328;2023-02-15T02:17:29;93884.81;;;0.99;90.97
6198;BME280;3132;42.622;23.328;2023-02-15T02:28:39;93908.22;;;0.76;92.19
6198;BME280;3132;42.622;23.328;2023-02-15T02:34:19;93893.84;;;0.88;91.41
6198;BME280;3132;42.622;23.328;2023-02-15T02:42:15;93879.00;;;0.84;91.30
6198;BME280;3132;42.622;23.328;2023-02-15T02:44:44;93903.38;;;1.28;93.40
6198;BME280;3132;42.622;23.328;2023-02-15T02:49:56;93906.28;;;1.19;90.70
6198;BME280;3132;42.622;23.328;2023-02-15T02:52:47;93892.03;;;1.16;90.48
6198;BME280;3132;42.622;23.328;2023-02-15T02:55:19;93903.47;;;1.14;90.53
6198;BME280;3132;42.622;23.328;2023-02-15T02:58:05;93913.00;;;1.20;90.74
6198;BME280;3132;42.622;23.328;2023-02-15T03:00:53;93886.84;;;1.10;90.96
6198;BME280;3132;42.622;23.328;2023-02-15T03:03:30;93887.63;;;1.04;90.64
6198;BME280;3132;42.622;23.328;2023-02-15T03:06:01;93914.41;;;1.22;91.96
6198;BME280;3132;42.622;23.328;2023-02-15T03:08:33;93924.84;;;1.14;90.69
6198;BME280;3132;42.622;23.328;2023-02-15T03:11:01;93899.06;;;1.01;90.57
6198;BME280;3132;42.622;23.328;2023-02-15T03:13:28;93920.69;;;1.13;90.68
6198;BME280;3132;42.622;23.328;2023-02-15T03:15:55;93906.03;;;1.07;90.57
6198;BME280;3132;42.622;23.328;2023-02-15T03:18:44;93932.00;;;1.19;91.31
6198;BME280;3132;42.622;23.328;2023-02-15T03:21:20;93908.69;;;1.27;90.93
6198;BME280;3132;42.622;23.328;2023-02-15T03:23:52;93905.78;;;1.02;90.85
6198;BME280;3132;42.622;23.328;2023-02-15T03:26:20;93928.97;;;1.43;93.49
6198;BME280;3132;42.622;23.328;2023-02-15T03:28:49;93922.13;;;1.22;90.44
6198;BME280;3132;42.622;23.328;2023-02-15T03:31:17;93909.03;;;1.17;90.74
6198;BME280;3132;42.622;23.328;2023-02-15T03:34:00;93908.03;;;1.18;90.76
6198;BME280;3132;42.622;23.328;2023-02-15T03:42:10;93926.94;;;1.32;92.51
6198;BME280;3132;42.622;23.328;2023-02-15T03:45:04;93909.41;;;1.14;91.15
6198;BME280;3132;42.622;23.328;2023-02-15T03:47:37;93909.66;;;1.19;91.49
6198;BME280;3132;42.622;23.328;2023-02-15T03:50:15;93906.09;;;1.20;90.66
6198;BME280;3132;42.622;23.328;2023-02-15T03:53:02;93914.19;;;1.17;91.43
6198;BME280;3132;42.622;23.328;2023-02-15T03:55:30;93848.19;;;0.97;94.68
6198;BME280;3132;42.622;23.328;2023-02-15T03:57:55;93890.84;;;1.19;91.62
6198;BME280;3132;42.622;23.328;2023-02-15T04:00:44;93929.16;;;1.48;94.15
6198;BME280;3132;42.622;23.328;2023-02-15T04:03:40;93924.50;;;1.24;91.62
6198;BME280;3132;42.622;23.328;2023-02-15T04:06:06;93927.03;;;1.17;91.83
6198;BME280;3132;42.622;23.328;2023-02-15T04:08:32;93912.19;;;1.13;92.34
6198;BME280;3132;42.622;23.328;2023-02-15T04:11:16;93923.72;;;1.23;92.08
6198;BME280;3132;42.622;23.328;2023-02-15T04:13:41;93928.41;;;1.13;92.08
6198;BME280;3132;42.622;23.328;2023-02-15T04:16:07;93950.94;;;1.11;92.73
6198;BME280;3132;42.622;23.328;2023-02-15T04:18:41;93936.50;;;1.10;93.77
6198;BME280;3132;42.622;23.328;2023-02-15T04:21:27;93918.94;;;1.20;93.44
6198;BME280;3132;42.622;23.328;2023-02-15T04:24:12;93960.94;;;1.27;93.39
6198;BME280;3132;42.622;23.328;2023-02-15T04:26:56;93940.38;;;1.27;93.49
6198;BME280;3132;42.622;23.328;2023-02-15T04:29:24;93953.81;;;1.29;94.00
6198;BME280;3132;42.622;23.328;2023-02-15T04:31:51;93966.03;;;1.21;94.08
6198;BME280;3132;42.622;23.328;2023-02-15T04:34:16;93971.03;;;1.29;93.88
6198;BME280;3132;42.622;23.328;2023-02-15T04:36:42;93950.94;;;1.11;93.97
6198;BME280;3132;42.622;23.328;2023-02-15T04:39:08;93966.47;;;1.24;93.61
6198;BME280;3132;42.622;23.328;2023-02-15T04:41:35;93973.81;;;1.27;93.91
6198;BME280;3132;42.622;23.328;2023-02-15T04:44:01;93971.81;;;1.29;93.47
6198;BME280;3132;42.622;23.328;2023-02-15T04:46:27;93973.63;;;1.35;92.87
6198;BME280;3132;42.622;23.328;2023-02-15T04:48:54;93950.31;;;1.09;93.65
6198;BME280;3132;42.622;23.328;2023-02-15T04:51:20;93971.44;;;1.32;93.39
6198;BME280;3132;42.622;23.328;2023-02-15T04:53:45;93964.28;;;1.21;93.02
6198;BME280;3132;42.622;23.328;2023-02-15T04:56:11;93950.22;;;1.24;93.97
6198;BME280;3132;42.622;23.328;2023-02-15T04:58:36;93967.38;;;1.44;94.34
6198;BME280;3132;42.622;23.328;2023-02-15T05:01:06;93974.00;;;1.26;92.52
6198;BME280;3132;42.622;23.328;2023-02-15T05:03:31;93982.47;;;1.26;92.96
6198;BME280;3132;42.622;23.328;2023-02-15T05:05:56;93985.84;;;1.27;92.67
6198;BME280;3132;42.622;23.328;2023-02-15T05:08:22;93980.53;;;1.28;92.76
6198;BME280;3132;42.622;23.328;2023-02-15T05:10:48;93983.91;;;1.29;93.23
6198;BME280;3132;42.622;23.328;2023-02-15T05:13:14;93975.22;;;1.36;93.34
6198;BME280;3132;42.622;23.328;2023-02-15T05:15:40;93992.00;;;1.32;92.75
6198;BME280;3132;42.622;23.328;2023-02-15T05:18:05;93953.22;;;1.00;93.29
6198;BME280;3132;42.622;23.328;2023-02-15T05:20:32;93991.56;;;1.22;93.32
6198;BME280;3132;42.622;23.328;2023-02-15T05:22:58;93993.28;;;1.15;94.02
6198;BME280;3132;42.622;23.328;2023-02-15T05:25:23;93985.75;;;1.07;93.69
6198;BME280;3132;42.622;23.328;2023-02-15T05:28:10;93992.09;;;1.11;93.72
6198;BME280;3132;42.622;23.328;2023-02-15T05:30:45;93978.66;;;1.16;93.69
6198;BME280;3132;42.622;23.328;2023-02-15T05:33:11;94013.72;;;1.23;94.34
6198;BME280;3132;42.622;23.328;2023-02-15T05:35:36;94002.44;;;1.18;93.54
6198;BME280;3132;42.622;23.328;2023-02-15T05:38:02;94008.00;;;1.21;93.37
6198;BME280;3132;42.622;23.328;2023-02-15T05:40:27;94015.72;;;1.28;92.85
6198;BME280;3132;42.622;23.328;2023-02-15T05:42:52;94014.78;;;1.29;93.38
6198;BME280;3132;42.622;23.328;2023-02-15T05:45:18;94010.88;;;1.39;94.14
6198;BME280;3132;42.622;23.328;2023-02-15T05:47:43;94003.34;;;1.38;93.22
6198;BME280;3132;42.622;23.328;2023-02-15T05:50:09;94013.81;;;1.36;92.23
6198;BME280;3132;42.622;23.328;2023-02-15T05:52:35;94008.06;;;1.34;91.95
6198;BME280;3132;42.622;23.328;2023-02-15T05:55:01;94012.53;;;1.53;91.62
6198;BME280;3132;42.622;23.328;2023-02-15T05:57:27;94011.97;;;1.58;90.97
6198;BME280;3132;42.622;23.328;2023-02-15T05:59:53;94005.81;;;1.52;91.96
6198;BME280;3132;42.622;23.328;2023-02-15T06:02:18;93976.19;;;1.29;91.33
6198;BME280;3132;42.622;23.328;2023-02-15T06:04:43;93988.34;;;1.41;91.68
6198;BME280;3132;42.622;23.328;2023-02-15T06:07:09;94003.06;;;1.54;91.09
6198;BME280;3132;42.622;23.328;2023-02-15T06:09:34;93997.75;;;1.68;90.16
6198;BME280;3132;42.622;23.328;2023-02-15T06:11:59;94017.59;;;1.68;90.60
6198;BME280;3132;42.622;23.328;2023-02-15T06:14:25;93988.97;;;1.50;90.41
6198;BME280;3132;42.622;23.328;2023-02-15T06:16:50;94019.97;;;1.76;90.67
6198;BME280;3132;42.622;23.328;2023-02-15T06:19:16;93986.97;;;1.45;90.67
6198;BME280;3132;42.622;23.328;2023-02-15T06:21:42;94017.78;;;1.73;90.55
6198;BME280;3132;42.622;23.328;2023-02-15T06:24:08;94011.25;;;1.71;90.97
6198;BME280;3132;42.622;23.328;2023-02-15T06:26:34;94022.53;;;1.70;90.06
6198;BME280;3132;42.622;23.328;2023-02-15T06:28:59;94009.44;;;1.64;90.04
6198;BME280;3132;42.622;23.328;2023-02-15T06:31:25;94021.94;;;1.67;89.79
6198;BME280;3132;42.622;23.328;2023-02-15T06:33:50;94027.25;;;1.66;90.44
6198;BME280;3132;42.622;23.328;2023-02-15T06:36:15;94014.16;;;1.61;90.64
6198;BME280;3132;42.622;23.328;2023-02-15T06:38:41;94011.28;;;1.77;89.26
6198;BME280;3132;42.622;23.328;2023-02-15T06:41:06;93991.38;;;1.58;89.36
6198;BME280;3132;42.622;23.328;2023-02-15T06:43:32;94021.13;;;1.67;88.73
6198;BME280;3132;42.622;23.328;2023-02-15T06:45:59;94006.47;;;1.67;88.81
6198;BME280;3132;42.622;23.328;2023-02-15T06:48:24;93965.19;;;1.41;87.96
6198;BME280;3132;42.622;23.328;2023-02-15T06:50:50;94019.47;;;1.94;87.82
6198;BME280;3132;42.622;23.328;2023-02-15T06:53:15;94010.94;;;1.87;87.07
6198;BME280;3132;42.622;23.328;2023-02-15T06:55:41;94019.25;;;1.89;87.21
6198;BME280;3132;42.622;23.328;2023-02-15T06:58:06;94022.66;;;1.96;87.15
6198;BME280;3132;42.622;23.328;2023-02-15T07:00:32;94002.03;;;1.89;86.51
6198;BME280;3132;42.622;23.328;2023-02-15T07:02:58;94020.69;;;2.04;86.63
6198;BME280;3132;42.622;23.328;2023-02-15T07:05:27;94018.38;;;2.16;86.50
6198;BME280;3132;42.622;23.328;2023-02-15T07:07:57;94023.91;;;2.13;86.61
6198;BME280;3132;42.622;23.328;2023-02-15T07:10:22;94023.88;;;2.06;85.71
6198;BME280;3132;42.622;23.328;2023-02-15T07:12:47;94026.25;;;2.08;85.73
6198;BME280;3132;42.622;23.328;2023-02-15T07:15:15;93988.69;;;1.73;85.39
6198;BME280;3132;42.622;23.328;2023-02-15T07:17:41;94025.47;;;2.07;85.22
6198;BME280;3132;42.622;23.328;2023-02-15T07:20:12;94015.91;;;1.88;85.24
6198;BME280;3132;42.622;23.328;2023-02-15T07:22:38;93998.09;;;2.00;85.38
6198;BME280;3132;42.622;23.328;2023-02-15T07:25:05;94032.06;;;2.23;84.19
6198;BME280;3132;42.622;23.328;2023-02-15T07:27:31;94037.25;;;2.29;84.31
6198;BME280;3132;42.622;23.328;2023-02-15T07:29:57;94028.50;;;2.24;83.75
6198;BME280;3132;42.622;23.328;2023-02-15T07:32:22;94027.09;;;2.15;86.12
6198;BME280;3132;42.622;23.328;2023-02-15T07:34:48;94027.50;;;2.25;84.63
6198;BME280;3132;42.622;23.328;2023-02-15T07:37:13;94000.91;;;2.05;84.19
6198;BME280;3132;42.622;23.328;2023-02-15T07:39:38;94029.50;;;2.29;84.08
6198;BME280;3132;42.622;23.328;2023-02-15T07:42:04;93987.03;;;2.12;84.13
6198;BME280;3132;42.622;23.328;2023-02-15T07:44:29;94002.94;;;2.22;82.61
6198;BME280;3132;42.622;23.328;2023-02-15T07:46:54;94023.00;;;2.40;82.91
6198;BME280;3132;42.622;23.328;2023-02-15T07:49:20;94002.97;;;2.35;82.20
6198;BME280;3132;42.622;23.328;2023-02-15T07:51:45;94009.13;;;2.41;81.83
6198;BME280;3132;42.622;23.328;2023-02-15T07:54:11;94013.28;;;2.42;81.74
6198;BME280;3132;42.622;23.328;2023-02-15T07:56:36;94021.69;;;2.57;81.15
6198;BME280;3132;42.622;23.328;2023-02-15T07:59:01;94025.03;;;2.64;80.42
6198;BME280;3132;42.622;23.328;2023-02-15T08:01:33;93938.72;;;2.14;80.63
6198;BME280;3132;42.622;23.328;2023-02-15T08:04:00;94022.88;;;2.87;80.45
6198;BME280;3132;42.622;23.328;2023-02-15T08:06:29;94032.78;;;2.83;80.36
6198;BME280;3132;42.622;23.328;2023-02-15T08:08:54;94012.78;;;2.72;79.95
6198;BME280;3132;42.622;23.328;2023-02-15T08:11:21;94034.97;;;2.86;80.16
6198;BME280;3132;42.622;23.328;2023-02-15T08:14:03;94024.50;;;2.88;81.66
6198;BME280;3132;42.622;23.328;2023-02-15T08:19:10;94015.72;;;2.76;79.84
6198;BME280;3132;42.622;23.328;2023-02-15T08:21:38;94030.25;;;3.22;80.09
6198;BME280;3132;42.622;23.328;2023-02-15T08:24:05;94038.56;;;3.51;79.03
6198;BME280;3132;42.622;23.328;2023-02-15T08:26:31;94029.63;;;2.75;80.07
6198;BME280;3132;42.622;23.328;2023-02-15T08:28:58;94034.56;;;2.57;81.44
6198;BME280;3132;42.622;23.328;2023-02-15T08:31:24;94038.31;;;2.61;82.76
6198;BME280;3132;42.622;23.328;2023-02-15T08:33:50;94032.00;;;2.70;81.62
6198;BME280;3132;42.622;23.328;2023-02-15T08:36:19;94018.13;;;2.77;81.81
6198;BME280;3132;42.622;23.328;2023-02-15T08:38:45;94014.16;;;2.94;80.56
6198;BME280;3132;42.622;23.328;2023-02-15T08:41:34;94044.91;;;2.96;80.76
6198;BME280;3132;42.622;23.328;2023-02-15T08:44:01;94043.31;;;2.88;80.89
6198;BME280;3132;42.622;23.328;2023-02-15T08:46:29;94043.31;;;2.88;81.15
6198;BME280;3132;42.622;23.328;2023-02-15T08:48:55;94025.06;;;2.90;80.47
6198;BME280;3132;42.622;23.328;2023-02-15T08:51:26;94033.22;;;3.19;79.29
6198;BME280;3132;42.622;23.328;2023-02-15T08:53:53;94037.19;;;3.28;78.42
6198;BME280;3132;42.622;23.328;2023-02-15T08:56:24;94035.59;;;3.21;78.12
6198;BME280;3132;42.622;23.328;2023-02-15T08:58:50;94044.13;;;3.41;79.80
6198;BME280;3132;42.622;23.328;2023-02-15T09:01:19;94050.13;;;3.22;77.79
6198;BME280;3132;42.622;23.328;2023-02-15T09:03:50;94040.56;;;3.16;77.83
6198;BME280;3132;42.622;23.328;2023-02-15T09:06:18;94049.09;;;3.23;77.63
6198;BME280;3132;42.622;23.328;2023-02-15T09:08:43;94039.19;;;3.20;78.38
6198;BME280;3132;42.622;23.328;2023-02-15T09:11:14;94035.97;;;3.44;77.45
6198;BME280;3132;42.622;23.328;2023-02-15T09:13:51;94037.59;;;3.45;76.44
6198;BME280;3132;42.622;23.328;2023-02-15T09:16:16;94046.75;;;3.35;76.42
6198;BME280;3132;42.622;23.328;2023-02-15T09:18:42;94038.00;;;3.36;78.38
6198;BME280;3132;42.622;23.328;2023-02-15T09:21:17;94040.16;;;3.45;77.33
6198;BME280;3132;42.622;23.328;2023-02-15T09:23:44;94028.88;;;3.33;77.87
6198;BME280;3132;42.622;23.328;2023-02-15T09:26:13;94044.72;;;3.37;77.87
6198;BME280;3132;42.622;23.328;2023-02-15T09:28:39;94053.28;;;3.37;77.03
6198;BME280;3132;42.622;23.328;2023-02-15T09:33:34;94043.94;;;3.43;77.27
6198;BME280;3132;42.622;23.328;2023-02-15T09:36:00;94051.50;;;3.38;78.19
6198;BME280;3132;42.622;23.328;2023-02-15T09:38:26;94042.94;;;3.50;77.55
6198;BME280;3132;42.622;23.328;2023-02-15T09:41:06;94047.50;;;3.35;78.16
6198;BME280;3132;42.622;23.328;2023-02-15T09:49:31;94007.03;;;3.16;79.22
6198;BME280;3132;42.622;23.328;2023-02-15T09:55:17;94041.78;;;3.33;78.57
6198;BME280;3132;42.622;23.328;2023-02-15T10:00:57;94038.38;;;3.39;77.32
6198;BME280;3132;42.622;23.328;2023-02-15T10:14:45;94029.66;;;3.40;77.61
6198;BME280;3132;42.622;23.328;2023-02-15T10:28:03;94020.84;;;3.74;75.21
6198;BME280;3132;42.622;23.328;2023-02-15T10:30:47;94018.97;;;4.00;75.44
6198;BME280;3132;42.622;23.328;2023-02-15T10:33:21;94033.53;;;3.82;75.62
6198;BME280;3132;42.622;23.328;2023-02-15T10:36:05;94022.66;;;3.73;76.26
6198;BME280;3132;42.622;23.328;2023-02-15T10:38:53;94010.56;;;3.67;76.70
6198;BME280;3132;42.622;23.328;2023-02-15T10:42:03;94019.03;;;3.87;76.95
6198;BME280;3132;42.622;23.328;2023-02-15T10:50:09;93999.22;;;3.55;77.48
6198;BME280;3132;42.622;23.328;2023-02-15T11:00:45;93997.13;;;4.03;78.35
6198;BME280;3132;42.622;23.328;2023-02-15T11:06:00;94005.00;;;4.14;76.15
6198;BME280;3132;42.622;23.328;2023-02-15T11:08:32;93986.59;;;4.04;76.10
6198;BME280;3132;42.622;23.328;2023-02-15T11:11:02;93997.34;;;3.95;77.05
6198;BME280;3132;42.622;23.328;2023-02-15T11:13:38;93993.22;;;3.87;77.57
6198;BME280;3132;42.622;23.328;2023-02-15T11:16:32;93998.16;;;3.95;77.19
6198;BME280;3132;42.622;23.328;2023-02-15T11:19:03;93994.25;;;3.67;78.38
6198;BME280;3132;42.622;23.328;2023-02-15T11:21:44;94001.19;;;3.73;77.75
6198;BME280;3132;42.622;23.328;2023-02-15T11:24:13;93975.97;;;3.68;77.54
6198;BME280;3132;42.622;23.328;2023-02-15T11:26:45;93993.44;;;3.73;76.99
6198;BME280;3132;42.622;23.328;2023-02-15T11:31:58;93991.78;;;3.98;78.26
6198;BME280;3132;42.622;23.328;2023-02-15T11:34:33;93988.53;;;4.15;77.39
6198;BME280;3132;42.622;23.328;2023-02-15T11:37:05;93947.47;;;3.88;76.71
6198;BME280;3132;42.622;23.328;2023-02-15T11:39:33;93995.31;;;4.03;77.27
6198;BME280;3132;42.622;23.328;2023-02-15T11:42:03;93992.38;;;3.93;77.67
6198;BME280;3132;42.622;23.328;2023-02-15T11:44:41;93993.00;;;3.95;76.25
6198;BME280;3132;42.622;23.328;2023-02-15T11:47:11;94002.50;;;4.01;76.12
6198;BME280;3132;42.622;23.328;2023-02-15T11:49:37;93982.16;;;4.11;79.52
6198;BME280;3132;42.622;23.328;2023-02-15T11:52:10;93979.78;;;4.10;76.87
6198;BME280;3132;42.622;23.328;2023-02-15T11:54:48;93972.72;;;4.36;75.41
6198;BME280;3132;42.622;23.328;2023-02-15T11:59:54;93946.00;;;4.11;75.74
6198;BME280;3132;42.622;23.328;2023-02-15T12:02:22;93950.03;;;3.94;75.51
6198;BME280;3132;42.622;23.328;2023-02-15T12:04:57;93948.06;;;3.96;76.48
6198;BME280;3132;42.622;23.328;2023-02-15T12:07:44;93959.50;;;4.13;76.40
6198;BME280;3132;42.622;23.328;2023-02-15T12:10:40;93960.63;;;4.30;75.12
6198;BME280;3132;42.622;23.328;2023-02-15T12:13:14;93959.91;;;4.10;75.05
6198;BME280;3132;42.622;23.328;2023-02-15T12:15:50;93961.94;;;4.02;75.83
6198;BME280;3132;42.622;23.328;2023-02-15T12:21:30;93957.19;;;4.36;73.95
6198;BME280;3132;42.622;23.328;2023-02-15T12:24:18;93939.91;;;3.93;74.96
6198;BME280;3132;42.622;23.328;2023-02-15T12:26:44;93931.72;;;4.09;75.01
6198;BME280;3132;42.622;23.328;2023-02-15T12:29:21;93939.00;;;4.18;75.62
6198;BME280;3132;42.622;23.328;2023-02-15T12:31:51;93935.59;;;4.24;75.17
6198;BME280;3132;42.622;23.328;2023-02-15T12:34:29;93954.19;;;4.39;75.27
6198;BME280;3132;42.622;23.328;2023-02-15T12:37:01;93899.81;;;4.28;74.97
6198;BME280;3132;42.622;23.328;2023-02-15T12:39:30;93952.03;;;4.67;74.80
6198;BME280;3132;42.622;23.328;2023-02-15T12:44:25;93930.25;;;4.50;74.23
6198;BME280;3132;42.622;23.328;2023-02-15T12:47:31;93932.22;;;4.55;74.81
6198;BME280;3132;42.622;23.328;2023-02-15T12:50:28;93926.13;;;4.74;74.87
6198;BME280;3132;42.622;23.328;2023-02-15T12:53:17;93918.06;;;4.88;73.33
6198;BME280;3132;42.622;23.328;2023-02-15T12:55:55;93919.72;;;4.76;73.43
6198;BME280;3132;42.622;23.328;2023-02-15T12:58:26;93922.69;;;4.55;73.67
6198;BME280;3132;42.622;23.328;2023-02-15T13:01:17;93918.22;;;4.62;74.72
6198;BME280;3132;42.622;23.328;2023-02-15T13:03:59;93920.06;;;4.86;73.38
6198;BME280;3132;42.622;23.328;2023-02-15T13:06:27;93916.44;;;4.87;72.73
6198;BME280;3132;42.622;23.328;2023-02-15T13:08:56;93911.81;;;4.71;73.23
6198;BME280;3132;42.622;23.328;2023-02-15T13:11:30;93869.38;;;4.54;73.49
6198;BME280;3132;42.622;23.328;2023-02-15T13:14:28;93919.84;;;4.88;73.61
6198;BME280;3132;42.622;23.328;2023-02-15T13:16:57;93907.03;;;5.36;78.65
6198;BME280;3132;42.622;23.328;2023-02-15T13:19:36;93897.06;;;4.96;72.08
6198;BME280;3132;42.622;23.328;2023-02-15T13:22:06;93891.50;;;5.18;75.33
6198;BME280;3132;42.622;23.328;2023-02-15T13:24:46;93905.31;;;5.12;72.95
6198;BME280;3132;42.622;23.328;2023-02-15T13:27:16;93898.31;;;5.12;74.31
6198;BME280;3132;42.622;23.328;2023-02-15T13:29:54;93912.09;;;5.31;72.74
6198;BME280;3132;42.622;23.328;2023-02-15T13:32:33;93874.78;;;4.95;72.33
6198;BME280;3132;42.622;23.328;2023-02-15T13:35:02;93917.88;;;5.26;71.88
6198;BME280;3132;42.622;23.328;2023-02-15T13:37:42;93917.13;;;5.26;72.12
6198;BME280;3132;42.622;23.328;2023-02-15T13:40:35;93910.47;;;5.12;72.95
6198;BME280;3132;42.622;23.328;2023-02-15T13:48:16;93916.63;;;5.11;72.25
6198;BME280;3132;42.622;23.328;2023-02-15T13:54:10;93914.09;;;5.29;71.51
6198;BME280;3132;42.622;23.328;2023-02-15T13:59:41;93933.88;;;4.98;72.30
6198;BME280;3132;42.622;23.328;2023-02-15T14:13:05;93940.13;;;4.91;73.94
6198;BME280;3132;42.622;23.328;2023-02-15T14:26:08;93951.28;;;4.60;75.44
6198;BME280;3132;42.622;23.328;2023-02-15T14:31:34;93951.63;;;4.33;76.00
6198;BME280;3132;42.622;23.328;2023-02-15T14:34:02;93933.91;;;4.05;77.03
6198;BME280;3132;42.622;23.328;2023-02-15T14:36:30;93934.13;;;3.97;78.20
6198;BME280;3132;42.622;23.328;2023-02-15T14:42:12;93917.94;;;3.77;80.00
6198;BME280;3132;42.622;23.328;2023-02-15T14:44:47;93926.28;;;3.79;79.60
6198;BME280;3132;42.622;23.328;2023-02-15T14:47:21;93940.69;;;4.00;78.79
6198;BME280;3132;42.622;23.328;2023-02-15T14:49:50;93951.84;;;3.94;78.96
6198;BME280;3132;42.622;23.328;2023-02-15T14:52:15;93945.59;;;3.70;79.41
6198;BME280;3132;42.622;23.328;2023-02-15T15:04:44;93949.63;;;3.47;81.21
6198;BME280;3132;42.622;23.328;2023-02-15T15:07:21;93941.66;;;3.55;82.89
6198;BME280;3132;42.622;23.328;2023-02-15T15:10:07;93941.06;;;3.46;82.47
6198;BME280;3132;42.622;23.328;2023-02-15T15:12:55;93945.88;;;3.36;82.16
6198;BME280;3132;42.622;23.328;2023-02-15T15:20:47;93941.91;;;3.33;82.45
6198;BME280;3132;42.622;23.328;2023-02-15T15:25:44;93952.22;;;3.27;82.33
6198;BME280;3132;42.622;23.328;2023-02-15T15:31:09;93956.63;;;3.20;82.86
6198;BME280;3132;42.622;23.328;2023-02-15T15:44:54;93959.41;;;2.60;84.39
6198;BME280;3132;42.622;23.328;2023-02-15T15:48:30;93914.16;;;2.25;85.29
6198;BME280;3132;42.622;23.328;2023-02-15T15:50:30;93966.09;;;2.41;85.14
6198;BME280;3132;42.622;23.328;2023-02-15T15:52:58;93966.13;;;2.48;86.51
6198;BME280;3132;42.622;23.328;2023-02-15T15:55:29;93964.94;;;2.44;86.06
6198;BME280;3132;42.622;23.328;2023-02-15T15:58:06;93926.44;;;2.16;86.39
6198;BME280;3132;42.622;23.328;2023-02-15T16:00:56;93961.53;;;2.24;86.47
6198;BME280;3132;42.622;23.328;2023-02-15T16:03:28;93969.03;;;2.12;86.71
6198;BME280;3132;42.622;23.328;2023-02-15T16:05:54;93928.09;;;1.77;87.63
6198;BME280;3132;42.622;23.328;2023-02-15T16:08:38;93952.34;;;2.02;87.83
6198;BME280;3132;42.622;23.328;2023-02-15T16:11:13;93942.00;;;1.89;87.72
6198;BME280;3132;42.622;23.328;2023-02-15T16:13:42;93958.41;;;1.81;87.79
6198;BME280;3132;42.622;23.328;2023-02-15T16:16:11;93962.59;;;1.89;87.82
6198;BME280;3132;42.622;23.328;2023-02-15T16:18:38;93961.44;;;1.91;87.77
6198;BME280;3132;42.622;23.328;2023-02-15T16:21:17;93960.03;;;1.82;88.52
6198;BME280;3132;42.622;23.328;2023-02-15T16:26:22;93969.84;;;1.65;88.68
6198;BME280;3132;42.622;23.328;2023-02-15T16:28:53;93958.50;;;1.53;89.25